sensor_id;sensor_type;location;lat;lon;timestamp;pressure;altitude;pressure_sealevel;temperature;humidity
19208;BME280;9737;59.466;18.036;2023-11-19T00:00:10;92820.94;;;-4.03;83.39
19208;BME280;9737;59.466;18.036;2023-11-19T00:02:41;92796.19;;;-4.06;83.24
19208;BME280;9737;59.466;18.036;2023-11-19T00:05:10;92824.53;;;-4.04;83.25
19208;BME280;9737;59.466;18.036;2023-11-19T00:07:39;92814.56;;;-4.07;83.35
19208;BME280;9737;59.466;18.036;2023-11-19T00:10:09;92823.13;;;-4.00;83.40
19208;BME280;9737;59.466;18.036;2023-11-19T00:12:38;92837.03;;;-3.94;83.49
19208;BME280;9737;59.466;18.036;2023-11-19T00:15:07;92819.94;;;-4.02;83.52
19208;BME280;9737;59.466;18.036;2023-11-19T00:17:39;92795.88;;;-4.16;83.59
19208;BME280;9737;59.466;18.036;2023-11-19T00:20:14;92788.09;;;-4.16;83.63
19208;BME280;9737;59.466;18.036;2023-11-19T00:22:45;92803.97;;;-4.06;83.55
19208;BME280;9737;59.466;18.036;2023-11-19T00:25:16;92701.13;;;-4.75;83.35
19208;BME280;9737;59.466;18.036;2023-11-19T00:27:45;92769.03;;;-4.28;83.20
19208;BME280;9737;59.466;18.036;2023-11-19T00:30:13;92797.66;;;-4.16;83.34
19208;BME280;9737;59.466;18.036;2023-11-19T00:32:42;92813.75;;;-4.01;83.16
19208;BME280;9737;59.466;18.036;2023-11-19T00:35:10;92805.88;;;-4.19;83.40
19208;BME280;9737;59.466;18.036;2023-11-19T00:37:43;92843.81;;;-3.93;83.32
19208;BME280;9737;59.466;18.036;2023-11-19T00:40:13;92796.97;;;-4.30;83.57
19208;BME280;9737;59.466;18.036;2023-11-19T00:42:43;92890.41;;;-3.80;83.22
19208;BME280;9737;59.466;18.036;2023-11-19T00:45:14;92839.53;;;-4.13;83.29
19208;BME280;9737;59.466;18.036;2023-11-19T00:47:42;92836.88;;;-4.06;83.30
19208;BME280;9737;59.466;18.036;2023-11-19T00:50:12;92799.75;;;-4.31;83.21
19208;BME280;9737;59.466;18.036;2023-11-19T00:52:43;92871.28;;;-3.86;83.35
19208;BME280;9737;59.466;18.036;2023-11-19T00:55:11;92802.06;;;-4.17;83.54
19208;BME280;9737;59.466;18.036;2023-11-19T00:57:40;92823.97;;;-4.13;83.33
19208;BME280;9737;59.466;18.036;2023-11-19T01:00:09;92806.31;;;-4.29;83.24
19208;BME280;9737;59.466;18.036;2023-11-19T01:02:46;92858.94;;;-3.90;83.40
19208;BME280;9737;59.466;18.036;2023-11-19T01:05:18;92832.47;;;-3.99;83.36
19208;BME280;9737;59.466;18.036;2023-11-19T01:07:50;92797.28;;;-4.20;83.34
19208;BME280;9737;59.466;18.036;2023-11-19T01:10:21;92823.91;;;-3.99;83.32
19208;BME280;9737;59.466;18.036;2023-11-19T01:12:49;92780.16;;;-4.21;83.27
19208;BME280;9737;59.466;18.036;2023-11-19T01:15:17;92776.41;;;-4.25;83.47
19208;BME280;9737;59.466;18.036;2023-11-19T01:17:46;92777.41;;;-4.26;83.34
19208;BME280;9737;59.466;18.036;2023-11-19T01:20:18;92773.06;;;-4.32;83.20
19208;BME280;9737;59.466;18.036;2023-11-19T01:22:47;92737.69;;;-4.51;83.15
19208;BME280;9737;59.466;18.036;2023-11-19T01:25:17;92800.41;;;-4.04;83.38
19208;BME280;9737;59.466;18.036;2023-11-19T01:27:46;92747.94;;;-4.38;83.35
19208;BME280;9737;59.466;18.036;2023-11-19T01:30:14;92816.34;;;-4.01;83.40
19208;BME280;9737;59.466;18.036;2023-11-19T01:32:42;92737.03;;;-4.47;83.49
19208;BME280;9737;59.466;18.036;2023-11-19T01:35:10;92780.16;;;-4.21;83.33
19208;BME280;9737;59.466;18.036;2023-11-19T01:37:38;92747.38;;;-4.40;83.41
19208;BME280;9737;59.466;18.036;2023-11-19T01:40:07;92753.13;;;-4.38;83.26
19208;BME280;9737;59.466;18.036;2023-11-19T01:42:39;92807.25;;;-4.17;83.38
19208;BME280;9737;59.466;18.036;2023-11-19T01:45:07;92775.03;;;-4.34;83.06
19208;BME280;9737;59.466;18.036;2023-11-19T01:47:37;92823.91;;;-3.99;83.34
19208;BME280;9737;59.466;18.036;2023-11-19T01:50:06;92839.63;;;-3.94;83.40
19208;BME280;9737;59.466;18.036;2023-11-19T01:52:35;92808.78;;;-4.02;83.43
19208;BME280;9737;59.466;18.036;2023-11-19T01:55:05;92789.25;;;-4.12;83.71
19208;BME280;9737;59.466;18.036;2023-11-19T01:57:35;92793.81;;;-4.07;83.31
19208;BME280;9737;59.466;18.036;2023-11-19T02:00:07;92767.00;;;-4.19;83.33
19208;BME280;9737;59.466;18.036;2023-11-19T02:02:38;92769.16;;;-4.16;83.00
19208;BME280;9737;59.466;18.036;2023-11-19T02:05:08;92731.81;;;-4.40;83.24
19208;BME280;9737;59.466;18.036;2023-11-19T02:07:36;92752.88;;;-4.23;83.22
19208;BME280;9737;59.466;18.036;2023-11-19T02:10:05;92723.03;;;-4.39;83.31
19208;BME280;9737;59.466;18.036;2023-11-19T02:12:40;92744.13;;;-4.29;83.34
19208;BME280;9737;59.466;18.036;2023-11-19T02:15:11;92744.09;;;-4.22;83.32
19208;BME280;9737;59.466;18.036;2023-11-19T02:17:39;92714.06;;;-4.37;83.38
19208;BME280;9737;59.466;18.036;2023-11-19T02:20:08;92737.31;;;-4.23;83.20
19208;BME280;9737;59.466;18.036;2023-11-19T02:22:39;92743.91;;;-4.27;83.60
19208;BME280;9737;59.466;18.036;2023-11-19T02:25:07;92747.25;;;-4.20;83.33
19208;BME280;9737;59.466;18.036;2023-11-19T02:27:48;92723.03;;;-4.39;82.99
19208;BME280;9737;59.466;18.036;2023-11-19T02:30:19;92774.13;;;-4.15;83.24
19208;BME280;9737;59.466;18.036;2023-11-19T02:32:48;92777.53;;;-4.14;83.25
19208;BME280;9737;59.466;18.036;2023-11-19T02:35:16;92780.47;;;-4.11;83.35
19208;BME280;9737;59.466;18.036;2023-11-19T02:37:44;92800.41;;;-4.04;83.05
19208;BME280;9737;59.466;18.036;2023-11-19T02:40:12;92799.59;;;-4.05;83.32
19208;BME280;9737;59.466;18.036;2023-11-19T02:42:40;92825.50;;;-3.98;83.26
19208;BME280;9737;59.466;18.036;2023-11-19T02:45:10;92825.50;;;-3.98;82.83
19208;BME280;9737;59.466;18.036;2023-11-19T02:47:40;92825.50;;;-3.98;83.33
19208;BME280;9737;59.466;18.036;2023-11-19T02:50:10;92824.69;;;-3.99;83.07
19208;BME280;9737;59.466;18.036;2023-11-19T02:52:41;92817.94;;;-4.00;83.11
19208;BME280;9737;59.466;18.036;2023-11-19T02:55:10;92808.78;;;-4.02;83.28
19208;BME280;9737;59.466;18.036;2023-11-19T02:57:39;92814.53;;;-4.00;83.19
19208;BME280;9737;59.466;18.036;2023-11-19T03:00:14;92807.78;;;-4.01;83.13
19208;BME280;9737;59.466;18.036;2023-11-19T03:02:43;92808.78;;;-4.02;83.48
19208;BME280;9737;59.466;18.036;2023-11-19T03:05:13;92800.41;;;-4.04;83.20
19208;BME280;9737;59.466;18.036;2023-11-19T03:07:41;92785.66;;;-4.11;83.21
19208;BME280;9737;59.466;18.036;2023-11-19T03:10:10;92796.41;;;-4.07;83.18
19208;BME280;9737;59.466;18.036;2023-11-19T03:12:40;92789.63;;;-4.08;83.20
19208;BME280;9737;59.466;18.036;2023-11-19T03:15:09;92800.41;;;-4.04;83.21
19208;BME280;9737;59.466;18.036;2023-11-19T03:17:39;92781.28;;;-4.10;83.18
19208;BME280;9737;59.466;18.036;2023-11-19T03:20:09;92778.69;;;-4.10;83.22
19208;BME280;9737;59.466;18.036;2023-11-19T03:22:37;92782.06;;;-4.10;83.09
19208;BME280;9737;59.466;18.036;2023-11-19T03:25:05;92770.53;;;-4.14;83.22
19208;BME280;9737;59.466;18.036;2023-11-19T03:27:35;92751.44;;;-4.19;83.20
19208;BME280;9737;59.466;18.036;2023-11-19T03:30:04;92747.25;;;-4.20;83.23
19208;BME280;9737;59.466;18.036;2023-11-19T03:32:32;92747.06;;;-4.19;83.21
19208;BME280;9737;59.466;18.036;2023-11-19T03:35:03;92735.31;;;-4.21;83.22
19208;BME280;9737;59.466;18.036;2023-11-19T03:37:33;92746.47;;;-4.21;83.18
19208;BME280;9737;59.466;18.036;2023-11-19T03:40:01;92756.41;;;-4.18;83.17
19208;BME280;9737;59.466;18.036;2023-11-19T03:42:29;92753.03;;;-4.18;83.10
19208;BME280;9737;59.466;18.036;2023-11-19T03:44:58;92793.59;;;-4.06;83.45
19208;BME280;9737;59.466;18.036;2023-11-19T03:47:26;92793.59;;;-4.06;83.06
19208;BME280;9737;59.466;18.036;2023-11-19T03:49:54;92790.44;;;-4.08;83.23
19208;BME280;9737;59.466;18.036;2023-11-19T03:52:24;92792.03;;;-4.07;83.10
19208;BME280;9737;59.466;18.036;2023-11-19T03:54:53;92797.81;;;-4.04;83.03
19208;BME280;9737;59.466;18.036;2023-11-19T03:57:22;92794.22;;;-4.03;83.07
19208;BME280;9737;59.466;18.036;2023-11-19T03:59:50;92792.81;;;-4.06;82.81
19208;BME280;9737;59.466;18.036;2023-11-19T04:02:17;92803.00;;;-4.04;83.20
19208;BME280;9737;59.466;18.036;2023-11-19T04:04:45;92814.53;;;-4.00;83.14
19208;BME280;9737;59.466;18.036;2023-11-19T04:07:13;92822.31;;;-4.00;83.23
19208;BME280;9737;59.466;18.036;2023-11-19T04:09:43;92811.16;;;-4.01;83.00
19208;BME280;9737;59.466;18.036;2023-11-19T04:12:13;92820.31;;;-3.98;83.14
19208;BME280;9737;59.466;18.036;2023-11-19T04:14:41;92830.69;;;-3.98;83.06
19208;BME280;9737;59.466;18.036;2023-11-19T04:17:08;92852.19;;;-3.91;83.16
19208;BME280;9737;59.466;18.036;2023-11-19T04:19:36;92856.94;;;-3.88;83.09
19208;BME280;9737;59.466;18.036;2023-11-19T04:22:07;92866.91;;;-3.85;83.12
19208;BME280;9737;59.466;18.036;2023-11-19T04:24:36;92877.66;;;-3.82;83.16
19208;BME280;9737;59.466;18.036;2023-11-19T04:27:06;92904.75;;;-3.78;83.24
19208;BME280;9737;59.466;18.036;2023-11-19T04:29:34;92922.09;;;-3.71;83.12
19208;BME280;9737;59.466;18.036;2023-11-19T04:32:02;92905.16;;;-3.74;83.20
19208;BME280;9737;59.466;18.036;2023-11-19T04:34:30;92913.53;;;-3.72;83.24
19208;BME280;9737;59.466;18.036;2023-11-19T04:36:58;92926.28;;;-3.70;83.14
19208;BME280;9737;59.466;18.036;2023-11-19T04:39:39;92926.88;;;-3.68;82.99
19208;BME280;9737;59.466;18.036;2023-11-19T04:42:08;92928.66;;;-3.69;83.01
19208;BME280;9737;59.466;18.036;2023-11-19T04:44:36;92895.97;;;-3.77;83.05
19208;BME280;9737;59.466;18.036;2023-11-19T04:47:04;92883.63;;;-3.81;83.07
19208;BME280;9737;59.466;18.036;2023-11-19T04:49:32;92871.28;;;-3.86;83.23
19208;BME280;9737;59.466;18.036;2023-11-19T04:52:00;92876.25;;;-3.84;83.04
19208;BME280;9737;59.466;18.036;2023-11-19T04:54:29;92858.53;;;-3.87;83.32
19208;BME280;9737;59.466;18.036;2023-11-19T04:56:57;92862.13;;;-3.88;83.04
19208;BME280;9737;59.466;18.036;2023-11-19T04:59:26;92877.84;;;-3.83;83.12
19208;BME280;9737;59.466;18.036;2023-11-19T05:01:54;92864.31;;;-3.85;83.05
19208;BME280;9737;59.466;18.036;2023-11-19T05:04:22;92857.16;;;-3.90;83.17
19208;BME280;9737;59.466;18.036;2023-11-19T05:06:50;92857.94;;;-3.89;83.01
19208;BME280;9737;59.466;18.036;2023-11-19T05:09:18;92920.28;;;-3.71;83.16
19208;BME280;9737;59.466;18.036;2023-11-19T05:11:46;92918.13;;;-3.74;82.97
19208;BME280;9737;59.466;18.036;2023-11-19T05:14:18;92893.19;;;-3.82;83.05
19208;BME280;9737;59.466;18.036;2023-11-19T05:16:48;92882.03;;;-3.82;83.22
19208;BME280;9737;59.466;18.036;2023-11-19T05:19:16;92882.03;;;-3.82;83.14
19208;BME280;9737;59.466;18.036;2023-11-19T05:21:45;92889.59;;;-3.81;83.14
19208;BME280;9737;59.466;18.036;2023-11-19T05:24:13;92891.19;;;-3.80;83.03
19208;BME280;9737;59.466;18.036;2023-11-19T05:26:41;92887.22;;;-3.82;83.03
19208;BME280;9737;59.466;18.036;2023-11-19T05:29:09;92867.91;;;-3.86;82.98
19208;BME280;9737;59.466;18.036;2023-11-19T05:31:36;92864.72;;;-3.88;82.74
19208;BME280;9737;59.466;18.036;2023-11-19T05:34:07;92856.94;;;-3.88;83.15
19208;BME280;9737;59.466;18.036;2023-11-19T05:36:35;92831.25;;;-3.96;83.11
19208;BME280;9737;59.466;18.036;2023-11-19T05:39:03;92837.03;;;-3.94;83.04
19208;BME280;9737;59.466;18.036;2023-11-19T05:41:31;92796.81;;;-4.03;83.14
19208;BME280;9737;59.466;18.036;2023-11-19T05:43:59;92764.34;;;-4.13;83.19
19208;BME280;9737;59.466;18.036;2023-11-19T05:46:28;92752.81;;;-4.17;82.96
19208;BME280;9737;59.466;18.036;2023-11-19T05:48:56;92733.50;;;-4.21;83.08
19208;BME280;9737;59.466;18.036;2023-11-19T05:51:25;92732.34;;;-4.25;82.97
19208;BME280;9737;59.466;18.036;2023-11-19T05:53:53;92692.13;;;-4.34;83.01
19208;BME280;9737;59.466;18.036;2023-11-19T05:56:22;92672.22;;;-4.40;82.95
19208;BME280;9737;59.466;18.036;2023-11-19T05:58:51;92639.03;;;-4.50;83.02
19208;BME280;9737;59.466;18.036;2023-11-19T06:01:19;92606.41;;;-4.57;83.02
19208;BME280;9737;59.466;18.036;2023-11-19T06:03:47;92590.72;;;-4.62;83.03
19208;BME280;9737;59.466;18.036;2023-11-19T06:06:17;92569.25;;;-4.70;82.96
19208;BME280;9737;59.466;18.036;2023-11-19T06:08:46;92562.47;;;-4.71;83.12
19208;BME280;9737;59.466;18.036;2023-11-19T06:11:14;92536.63;;;-4.77;83.01
19208;BME280;9737;59.466;18.036;2023-11-19T06:13:45;92517.56;;;-4.83;82.87
19208;BME280;9737;59.466;18.036;2023-11-19T06:16:13;92492.53;;;-4.89;83.00
19208;BME280;9737;59.466;18.036;2023-11-19T06:18:41;92490.94;;;-4.90;83.30
19208;BME280;9737;59.466;18.036;2023-11-19T06:21:10;92481.00;;;-4.93;82.78
19208;BME280;9737;59.466;18.036;2023-11-19T06:23:38;92509.22;;;-4.85;83.12
19208;BME280;9737;59.466;18.036;2023-11-19T06:26:07;92515.97;;;-4.84;83.03
19208;BME280;9737;59.466;18.036;2023-11-19T06:28:36;92513.03;;;-4.87;83.00
19208;BME280;9737;59.466;18.036;2023-11-19T06:31:04;92516.56;;;-4.82;83.07
19208;BME280;9737;59.466;18.036;2023-11-19T06:33:32;92535.84;;;-4.78;83.03
19208;BME280;9737;59.466;18.036;2023-11-19T06:36:00;92549.38;;;-4.76;82.94
19208;BME280;9737;59.466;18.036;2023-11-19T06:38:28;92558.09;;;-4.70;82.92
19208;BME280;9737;59.466;18.036;2023-11-19T06:40:56;92576.38;;;-4.65;82.91
19208;BME280;9737;59.466;18.036;2023-11-19T06:43:25;92583.94;;;-4.63;83.15
19208;BME280;9737;59.466;18.036;2023-11-19T06:46:14;92610.00;;;-4.58;83.24
19208;BME280;9737;59.466;18.036;2023-11-19T06:48:42;92631.84;;;-4.48;82.97
19208;BME280;9737;59.466;18.036;2023-11-19T06:51:11;92662.28;;;-4.43;83.00
19208;BME280;9737;59.466;18.036;2023-11-19T06:53:39;92664.69;;;-4.42;82.97
19208;BME280;9737;59.466;18.036;2023-11-19T06:56:17;92679.00;;;-4.39;83.04
19208;BME280;9737;59.466;18.036;2023-11-19T06:58:46;92687.94;;;-4.35;83.05
19208;BME280;9737;59.466;18.036;2023-11-19T07:01:15;92692.13;;;-4.34;83.01
19208;BME280;9737;59.466;18.036;2023-11-19T07:03:44;92684.34;;;-4.34;82.96
19208;BME280;9737;59.466;18.036;2023-11-19T07:06:13;92680.16;;;-4.35;82.96
19208;BME280;9737;59.466;18.036;2023-11-19T07:08:41;92685.34;;;-4.35;82.99
19208;BME280;9737;59.466;18.036;2023-11-19T07:11:11;92713.25;;;-4.30;83.12
19208;BME280;9737;59.466;18.036;2023-11-19T07:13:40;92718.81;;;-4.27;83.06
19208;BME280;9737;59.466;18.036;2023-11-19T07:16:10;92727.94;;;-4.24;83.06
19208;BME280;9737;59.466;18.036;2023-11-19T07:18:38;92747.06;;;-4.19;83.18
19208;BME280;9737;59.466;18.036;2023-11-19T07:21:06;92763.75;;;-4.15;83.07
19208;BME280;9737;59.466;18.036;2023-11-19T07:23:37;92782.06;;;-4.10;82.94
19208;BME280;9737;59.466;18.036;2023-11-19T07:26:06;92801.22;;;-4.04;82.94
19208;BME280;9737;59.466;18.036;2023-11-19T07:28:35;92827.88;;;-3.97;83.09
19208;BME280;9737;59.466;18.036;2023-11-19T07:31:04;92861.91;;;-3.87;83.07
19208;BME280;9737;59.466;18.036;2023-11-19T07:33:35;92876.06;;;-3.83;82.78
19208;BME280;9737;59.466;18.036;2023-11-19T07:36:04;92887.81;;;-3.80;82.95
19208;BME280;9737;59.466;18.036;2023-11-19T07:38:32;92883.84;;;-3.83;83.27
19208;BME280;9737;59.466;18.036;2023-11-19T07:41:00;92906.94;;;-3.75;83.12
19208;BME280;9737;59.466;18.036;2023-11-19T07:43:27;92919.50;;;-3.71;82.93
19208;BME280;9737;59.466;18.036;2023-11-19T07:45:56;92933.44;;;-3.66;83.13
19208;BME280;9737;59.466;18.036;2023-11-19T07:48:26;92938.63;;;-3.66;83.14
19208;BME280;9737;59.466;18.036;2023-11-19T07:50:55;92946.19;;;-3.64;83.02
19208;BME280;9737;59.466;18.036;2023-11-19T07:53:23;92958.53;;;-3.60;83.02
19208;BME280;9737;59.466;18.036;2023-11-19T07:55:51;92962.72;;;-3.59;83.19
19208;BME280;9737;59.466;18.036;2023-11-19T07:58:19;92972.09;;;-3.58;83.00
19208;BME280;9737;59.466;18.036;2023-11-19T08:00:47;92976.28;;;-3.57;83.03
19208;BME280;9737;59.466;18.036;2023-11-19T08:03:15;92992.81;;;-3.51;83.01
19208;BME280;9737;59.466;18.036;2023-11-19T08:05:43;93013.94;;;-3.48;83.05
19208;BME280;9737;59.466;18.036;2023-11-19T08:08:12;93047.06;;;-3.36;82.93
19208;BME280;9737;59.466;18.036;2023-11-19T08:10:40;93064.59;;;-3.32;83.01
19208;BME280;9737;59.466;18.036;2023-11-19T08:13:09;93061.00;;;-3.31;83.19
19208;BME280;9737;59.466;18.036;2023-11-19T08:15:36;93086.53;;;-3.28;82.98
19208;BME280;9737;59.466;18.036;2023-11-19T08:18:04;93092.91;;;-3.24;82.86
19208;BME280;9737;59.466;18.036;2023-11-19T08:20:33;93133.22;;;-3.15;83.04
19208;BME280;9737;59.466;18.036;2023-11-19T08:23:02;93160.97;;;-3.08;83.13
19208;BME280;9737;59.466;18.036;2023-11-19T08:25:31;93166.38;;;-3.10;82.84
19208;BME280;9737;59.466;18.036;2023-11-19T08:28:01;93219.00;;;-2.90;83.15
19208;BME280;9737;59.466;18.036;2023-11-19T08:30:30;93224.22;;;-2.90;83.15
19208;BME280;9737;59.466;18.036;2023-11-19T08:32:57;93250.97;;;-2.83;83.19
19208;BME280;9737;59.466;18.036;2023-11-19T08:35:29;93274.34;;;-2.76;83.00
19208;BME280;9737;59.466;18.036;2023-11-19T08:37:57;93255.38;;;-2.83;83.04
19208;BME280;9737;59.466;18.036;2023-11-19T08:40:26;93252.56;;;-2.82;83.16
19208;BME280;9737;59.466;18.036;2023-11-19T08:42:55;93260.97;;;-2.79;83.05
19208;BME280;9737;59.466;18.036;2023-11-19T08:45:23;93340.25;;;-2.57;83.29
19208;BME280;9737;59.466;18.036;2023-11-19T08:47:51;93440.38;;;-2.28;82.91
19208;BME280;9737;59.466;18.036;2023-11-19T08:50:19;93614.16;;;-1.85;83.05
19208;BME280;9737;59.466;18.036;2023-11-19T08:52:47;93721.25;;;-1.56;83.13
19208;BME280;9737;59.466;18.036;2023-11-19T08:55:14;93802.56;;;-1.34;83.15
19208;BME280;9737;59.466;18.036;2023-11-19T08:57:42;93863.88;;;-1.18;82.99
19208;BME280;9737;59.466;18.036;2023-11-19T09:00:12;93909.81;;;-1.04;83.07
19208;BME280;9737;59.466;18.036;2023-11-19T09:02:40;93923.22;;;-1.00;83.43
19208;BME280;9737;59.466;18.036;2023-11-19T09:05:09;93959.72;;;-0.94;83.02
19208;BME280;9737;59.466;18.036;2023-11-19T09:07:38;93947.69;;;-0.95;83.02
19208;BME280;9737;59.466;18.036;2023-11-19T09:10:06;93952.28;;;-0.90;83.46
19208;BME280;9737;59.466;18.036;2023-11-19T09:12:35;93961.72;;;-0.89;83.28
19208;BME280;9737;59.466;18.036;2023-11-19T09:15:03;94025.13;;;-0.75;83.33
19208;BME280;9737;59.466;18.036;2023-11-19T09:17:32;94107.41;;;-0.53;83.42
19208;BME280;9737;59.466;18.036;2023-11-19T09:20:01;94087.31;;;-0.59;83.01
19208;BME280;9737;59.466;18.036;2023-11-19T09:22:29;94078.69;;;-0.59;83.14
19208;BME280;9737;59.466;18.036;2023-11-19T09:24:57;94131.69;;;-0.46;83.50
19208;BME280;9737;59.466;18.036;2023-11-19T09:27:26;94159.59;;;-0.40;83.24
19208;BME280;9737;59.466;18.036;2023-11-19T09:29:54;94150.75;;;-0.39;83.53
19208;BME280;9737;59.466;18.036;2023-11-19T09:32:24;94093.56;;;-0.53;83.23
19208;BME280;9737;59.466;18.036;2023-11-19T09:34:54;94035.94;;;-0.72;83.35
19208;BME280;9737;59.466;18.036;2023-11-19T09:37:22;93971.34;;;-0.89;83.18
19208;BME280;9737;59.466;18.036;2023-11-19T09:39:50;93993.22;;;-0.84;83.23
19208;BME280;9737;59.466;18.036;2023-11-19T09:42:18;93961.91;;;-0.90;83.34
19208;BME280;9737;59.466;18.036;2023-11-19T09:44:47;93937.66;;;-0.98;83.16
19208;BME280;9737;59.466;18.036;2023-11-19T09:47:16;93871.50;;;-1.16;83.58
19208;BME280;9737;59.466;18.036;2023-11-19T09:49:47;93863.88;;;-1.18;83.24
19208;BME280;9737;59.466;18.036;2023-11-19T09:52:17;93946.09;;;-0.96;83.39
19208;BME280;9737;59.466;18.036;2023-11-19T09:54:45;93959.50;;;-0.92;83.08
19208;BME280;9737;59.466;18.036;2023-11-19T09:57:15;94021.69;;;-0.76;83.57
19208;BME280;9737;59.466;18.036;2023-11-19T09:59:45;94241.94;;;-0.17;83.17
19208;BME280;9737;59.466;18.036;2023-11-19T10:02:14;94581.19;;;0.73;82.88
19208;BME280;9737;59.466;18.036;2023-11-19T10:04:42;94930.63;;;1.65;83.01
19208;BME280;9737;59.466;18.036;2023-11-19T10:07:11;95164.00;;;2.26;83.21
19208;BME280;9737;59.466;18.036;2023-11-19T10:09:40;95239.38;;;2.45;83.16
19208;BME280;9737;59.466;18.036;2023-11-19T10:12:08;95084.44;;;2.05;83.23
19208;BME280;9737;59.466;18.036;2023-11-19T10:14:37;95230.53;;;2.46;83.19
19208;BME280;9737;59.466;18.036;2023-11-19T10:17:07;95104.84;;;2.10;83.05
19208;BME280;9737;59.466;18.036;2023-11-19T10:19:35;95248.50;;;2.49;83.03
19208;BME280;9737;59.466;18.036;2023-11-19T10:22:04;95322.91;;;2.69;83.23
19208;BME280;9737;59.466;18.036;2023-11-19T10:24:33;95238.56;;;2.44;82.97
19208;BME280;9737;59.466;18.036;2023-11-19T10:27:08;94992.59;;;1.79;83.40
19208;BME280;9737;59.466;18.036;2023-11-19T10:29:36;94797.91;;;1.24;83.11
19208;BME280;9737;59.466;18.036;2023-11-19T10:32:04;94676.84;;;0.96;83.17
19208;BME280;9737;59.466;18.036;2023-11-19T10:34:52;94541.94;;;0.60;83.20
19208;BME280;9737;59.466;18.036;2023-11-19T10:37:29;94498.66;;;0.51;83.03
19208;BME280;9737;59.466;18.036;2023-11-19T10:39:58;94452.59;;;0.37;82.83
19208;BME280;9737;59.466;18.036;2023-11-19T10:42:27;94361.50;;;0.14;82.88
19208;BME280;9737;59.466;18.036;2023-11-19T10:44:55;94302.00;;;-0.04;83.36
19208;BME280;9737;59.466;18.036;2023-11-19T10:47:23;94234.28;;;-0.25;82.83
19208;BME280;9737;59.466;18.036;2023-11-19T10:49:54;94206.97;;;-0.29;83.03
19208;BME280;9737;59.466;18.036;2023-11-19T10:52:23;94157.16;;;-0.41;82.75
19208;BME280;9737;59.466;18.036;2023-11-19T10:54:55;94133.50;;;-0.46;83.02
19208;BME280;9737;59.466;18.036;2023-11-19T10:57:30;94113.41;;;-0.52;82.94
19208;BME280;9737;59.466;18.036;2023-11-19T11:00:01;94087.50;;;-0.60;83.13
19208;BME280;9737;59.466;18.036;2023-11-19T11:02:32;94079.06;;;-0.63;83.19
19208;BME280;9737;59.466;18.036;2023-11-19T11:05:02;94119.44;;;-0.52;82.98
19208;BME280;9737;59.466;18.036;2023-11-19T11:07:31;94123.44;;;-0.49;82.96
19208;BME280;9737;59.466;18.036;2023-11-19T11:10:07;94158.78;;;-0.40;82.87
19208;BME280;9737;59.466;18.036;2023-11-19T11:12:37;94186.47;;;-0.33;82.78
19208;BME280;9737;59.466;18.036;2023-11-19T11:15:07;94185.88;;;-0.35;83.31
19208;BME280;9737;59.466;18.036;2023-11-19T11:17:36;94306.22;;;-0.03;83.21
19208;BME280;9737;59.466;18.036;2023-11-19T11:20:08;94395.06;;;0.23;82.97
19208;BME280;9737;59.466;18.036;2023-11-19T11:22:43;94529.44;;;0.55;82.88
19208;BME280;9737;59.466;18.036;2023-11-19T11:25:29;94853.78;;;1.44;82.83
19208;BME280;9737;59.466;18.036;2023-11-19T11:28:13;95461.06;;;3.05;83.08
19208;BME280;9737;59.466;18.036;2023-11-19T11:31:00;95833.03;;;3.99;82.76
19208;BME280;9737;59.466;18.036;2023-11-19T11:33:41;95821.72;;;3.99;82.89
19208;BME280;9737;59.466;18.036;2023-11-19T11:36:30;95471.56;;;3.05;83.11
19208;BME280;9737;59.466;18.036;2023-11-19T11:38:59;95197.34;;;2.32;82.98
19208;BME280;9737;59.466;18.036;2023-11-19T11:41:27;94837.84;;;1.39;82.82
19208;BME280;9737;59.466;18.036;2023-11-19T11:43:58;94614.59;;;0.78;82.85
19208;BME280;9737;59.466;18.036;2023-11-19T11:46:53;94467.88;;;0.40;82.70
19208;BME280;9737;59.466;18.036;2023-11-19T11:49:25;94357.47;;;0.11;82.77
19208;BME280;9737;59.466;18.036;2023-11-19T11:52:00;94239.72;;;-0.20;83.02
19208;BME280;9737;59.466;18.036;2023-11-19T11:54:30;94221.63;;;-0.28;82.78
19208;BME280;9737;59.466;18.036;2023-11-19T11:57:03;94142.72;;;-0.44;82.56
19208;BME280;9737;59.466;18.036;2023-11-19T11:59:43;94064.84;;;-0.67;82.89
19208;BME280;9737;59.466;18.036;2023-11-19T12:02:13;94033.94;;;-0.76;83.07
19208;BME280;9737;59.466;18.036;2023-11-19T12:04:41;94001.03;;;-0.84;82.46
19208;BME280;9737;59.466;18.036;2023-11-19T12:07:13;94041.97;;;-0.71;82.58
19208;BME280;9737;59.466;18.036;2023-11-19T12:09:42;94008.66;;;-0.82;82.58
19208;BME280;9737;59.466;18.036;2023-11-19T12:12:28;93960.50;;;-0.93;82.65
19208;BME280;9737;59.466;18.036;2023-11-19T12:15:06;93931.25;;;-1.02;82.65
19208;BME280;9737;59.466;18.036;2023-11-19T12:17:51;93894.38;;;-1.12;82.47
19208;BME280;9737;59.466;18.036;2023-11-19T12:20:20;93852.47;;;-1.23;82.77
19208;BME280;9737;59.466;18.036;2023-11-19T12:22:51;93841.44;;;-1.26;82.69
19208;BME280;9737;59.466;18.036;2023-11-19T12:25:20;93792.16;;;-1.40;82.32
19208;BME280;9737;59.466;18.036;2023-11-19T12:27:50;93779.72;;;-1.45;82.79
19208;BME280;9737;59.466;18.036;2023-11-19T12:30:22;93740.88;;;-1.53;82.40
19208;BME280;9737;59.466;18.036;2023-11-19T12:32:52;93755.28;;;-1.50;82.34
19208;BME280;9737;59.466;18.036;2023-11-19T12:35:22;93742.06;;;-1.56;82.80
19208;BME280;9737;59.466;18.036;2023-11-19T12:37:51;93703.25;;;-1.64;82.43
19208;BME280;9737;59.466;18.036;2023-11-19T12:40:21;93668.81;;;-1.72;82.66
19208;BME280;9737;59.466;18.036;2023-11-19T12:42:50;93663.19;;;-1.76;82.50
19208;BME280;9737;59.466;18.036;2023-11-19T12:45:19;93596.97;;;-1.93;82.37
19208;BME280;9737;59.466;18.036;2023-11-19T12:48:04;93557.53;;;-2.03;82.24
19208;BME280;9737;59.466;18.036;2023-11-19T12:50:50;93518.72;;;-2.11;82.63
19208;BME280;9737;59.466;18.036;2023-11-19T12:53:18;93514.75;;;-2.14;82.26
19208;BME280;9737;59.466;18.036;2023-11-19T12:55:46;93493.94;;;-2.21;82.18
19208;BME280;9737;59.466;18.036;2023-11-19T12:58:28;93466.16;;;-2.27;82.45
19208;BME280;9737;59.466;18.036;2023-11-19T13:01:00;93460.38;;;-2.29;82.54
19208;BME280;9737;59.466;18.036;2023-11-19T13:03:33;93509.16;;;-2.17;82.47
19208;BME280;9737;59.466;18.036;2023-11-19T13:06:02;93496.16;;;-2.17;82.67
19208;BME280;9737;59.466;18.036;2023-11-19T13:08:36;93550.72;;;-2.04;82.27
19208;BME280;9737;59.466;18.036;2023-11-19T13:11:05;93531.94;;;-2.06;82.36
19208;BME280;9737;59.466;18.036;2023-11-19T13:13:55;93560.75;;;-2.01;82.46